Bodensee (Kressbronn): 6,7°C  -  Teich der Wetterzentrale Bad Schussenried: 5,6°C |  Schneehöhe Kreuzthal-Steinberg (930 m ü. NN): 8 cm   
01.04.2020Höhe
ü. NN
ZeitTemperatur (°C)Nieder-
schlag
Luft-
feuchte
Luft-
druck
Wind
StationaktuellMinimumMaximumaktuellMaximum
Aldingen654 m06:16-4,5-4,5 (07:35)-0,3 (16:02)0,0 l/m²78%1023,43,7 km/h (1 Bft) W29,6 km/h (5 Bft) W (14:48)
Allmendingen541 m06:15-6,2-6,3 (07:35)-2,1 (15:10)0,0 l/m²88%1023,20,0 km/h (0 Bft) NO35,4 km/h (5 Bft) O (15:35)
Altshausen574 m06:15-3,7-3,9 (05:14)-1,1 (00:16)0,0 l/m²67%1020,88,0 km/h (2 Bft) N11,3 km/h (2 Bft) N (06:10)
Amstetten-Reutti663 m06:15-4,7-4,7 (06:15)-1,5 (16:55)0,0 l/m²86%1022,93,2 km/h (1 Bft) N-NO48,3 km/h (6 Bft) W (15:55)
Amtzell-Grenis677 m06:15-3,7-4,1 (06:05)-1,4 (00:00)0,0 l/m²63%1022,96,4 km/h (2 Bft) W-SW6,4 km/h (2 Bft) W-SW (00:00)
Aulendorf570 m06:15-2,9-2,9 (06:10)-0,5 (00:00)0,0 l/m²71%1021,86,4 km/h (2 Bft) NO14,5 km/h (3 Bft) O-NO (05:13)
Bad Krozingen233 m06:15-2,1-2,1 (06:15)3,7 (16:05)0,0 l/m²77%1023,35,2 km/h (1 Bft) SW38,1 km/h (5 Bft) N (17:05)
Bad Saulgau595 m06:15-5,0-5,0 (07:00)-1,9 (15:00)0,0 l/m²87%1021,60,0 km/h (0 Bft) S-SO25,7 km/h (4 Bft) S (11:35)
Bad Saulgau, Mannsgrab588 m06:13-4,8-6,1 (05:34)-1,7 (00:17)0,0 l/m²86%1024,10,0 km/h (0 Bft) N0,0 km/h (0 Bft) N (00:00)
Bad Saulgau-Lampertsweiler627 m06:15-4,8-4,8 (06:15)0,2 (00:00)0,0 l/m²81%1024,76,4 km/h (2 Bft) N-NW22,5 km/h (4 Bft) N-NW (01:15)
Bad Schussenried572 m06:15-4,0-4,0 (06:10)-1,1 (00:00)0,0 l/m²87%1021,20,0 km/h (0 Bft) NO9,7 km/h (2 Bft) NO (03:15)
Bergatreute615 m01:45-0,7-0,7 (00:45)0,0 (00:00)0,0 l/m²77%1023,512,9 km/h (3 Bft) NO16,1 km/h (3 Bft) O-NO (01:40)
Biberach (Riss), Boehringer533 m06:20-4,1-4,4 (06:20)-1,1 (00:30)0,0 l/m²88%1021,92,9 km/h (1 Bft) NW11,9 km/h (3 Bft) N (03:00)
Biberach (Riss), Realschule553 m06:15-3,9-3,9 (06:05)-0,3 (00:00)0,0 l/m²87%1023,711,3 km/h (2 Bft) N-NO12,9 km/h (3 Bft) N (06:05)
Burgrieden523 m06:15-3,9-3,9 (06:10)-0,4 (00:00)0,0 l/m²81%1022,80,0 km/h (0 Bft) NO4,8 km/h (1 Bft) O-NO (02:50)
Burgrieden-Hochstetten510 m06:10-4,5-4,5 (07:00)-0,9 (15:40)0,0 l/m²89%1023,33,2 km/h (1 Bft) N-NO25,7 km/h (4 Bft) NO (12:55)
Ebersbach579 m06:15-3,6-3,8 (05:55)-0,1 (00:00)0,0 l/m²86%1023,28,0 km/h (2 Bft) N-NW16,1 km/h (3 Bft) NO (01:25)
Ebersbach-Boos605 m06:15-4,2-4,2 (05:55)-0,1 (00:00)0,0 l/m²88%1022,912,9 km/h (3 Bft) NO22,5 km/h (4 Bft) O (01:00)
Ebersbach-Menzenweiler661 m06:15-3,8-3,8 (06:10)-0,6 (00:00)0,0 l/m²88%1022,917,7 km/h (3 Bft) N-NO24,1 km/h (4 Bft) O-NO (01:05)
Ehingen535 m01:10-2,5-2,5 (01:10)-1,3 (00:05)0,0 l/m²70%1025,40,0 km/h (0 Bft) N-NO5,0 km/h (1 Bft) N-NO (00:15)
Erlenmoos645 m06:15-3,3-3,3 (06:15)-0,9 (00:00)0,0 l/m²86%1022,66,4 km/h (2 Bft) NO12,9 km/h (3 Bft) O-NO (01:35)
Ertingen569 m06:15-3,4-3,4 (06:00)-0,6 (00:00)0,0 l/m²84%1022,84,8 km/h (1 Bft) N-NO16,1 km/h (3 Bft) N-NO (04:10)
Friedrichshafen405 m06:15-1,6-1,6 (07:00)0,9 (13:30)0,0 l/m²78%1022,611,3 km/h (2 Bft) NO27,4 km/h (4 Bft) NO (15:10)
Günzburg443 m06:15-4,8-4,8 (06:05)-1,1 (00:00)0,0 l/m²87%1020,70,0 km/h (0 Bft) NO0,0 km/h (0 Bft) NO (00:00)
Hochdorf-Appendorf537 m06:15-5,2-5,8 (06:05)-1,7 (00:15)0,0 l/m²67%1022,56,4 km/h (2 Bft) N-NO14,5 km/h (3 Bft) N-NW (03:20)
Höchsten802 m06:15-3,7-3,7 (06:00)-1,4 (00:00)0,0 l/m²80%1020,519,3 km/h (3 Bft) N25,7 km/h (4 Bft) NO (02:45)
Horgenzell618 m06:15-1,9-1,9 (03:45)-0,6 (00:05)0,0 l/m²76%1020,14,8 km/h (1 Bft) N-NO19,3 km/h (3 Bft) N-NO (00:50)
Hoßkirch632 m06:15-6,5-6,5 (06:15)-1,0 (00:15)0,0 l/m²87%1021,74,8 km/h (1 Bft) O14,5 km/h (3 Bft) O-NO (00:20)
Isny, Am Dreifingerbach695 m06:15-4,6-4,6 (06:15)0,1 (01:00)0,0 l/m²81%1021,34,8 km/h (1 Bft) W14,5 km/h (3 Bft) O-NO (01:05)
Isny, Weidachweg706 m06:15-4,2-4,2 (06:15)0,3 (00:25)0,0 l/m²76%1023,50,0 km/h (0 Bft) W12,9 km/h (3 Bft) W (00:10)
Kappel-Grafenhausen163 m06:10-1,4-1,4 (07:00)3,3 (14:55)0,0 l/m²77%1021,11,6 km/h (1 Bft) N30,6 km/h (5 Bft) N-NO (16:55)
Kißlegg-Staibshof709 m06:15-3,2-3,2 (06:00)-0,9 (00:00)0,0 l/m²82%1022,48,0 km/h (2 Bft) NO14,5 km/h (3 Bft) O (01:50)
Kressbronn398 m06:16-2,1-2,1 (06:16)1,4 (00:00)0,0 l/m²75%1021,20,0 km/h (0 Bft) NO22,5 km/h (4 Bft) NO (00:54)
Kreuzthal-Steinberg-Alpe930 m06:10-4,5-4,8 (04:00)-2,5 (00:00)0,0 l/m²88%1022,01,8 km/h (1 Bft) N-NW22,0 km/h (4 Bft) W-NW (00:10)
Kreuzthal-Steinberggipfel1040 m06:10-3,5-4,0 (02:20)-3,1 (00:10)-74%1022,014,4 km/h (3 Bft) O37,1 km/h (5 Bft) O-SO (00:10)
Kristberg im Montafon (AT)1425 m06:15-6,4-6,6 (04:51)-5,3 (00:40)0,0 l/m²61%1026,20,0 km/h (0 Bft) N-NO10,1 km/h (2 Bft) NO (01:47)
Laupheim500 m06:15-3,8-3,8 (06:15)0,0 (00:00)0,0 l/m²82%1022,40,0 km/h (0 Bft) NO9,7 km/h (2 Bft) O-SO (00:20)
Leutkirch-Heggelbach670 m06:15-4,6-4,6 (05:40)-2,6 (00:30)0,0 l/m²87%1021,60,0 km/h (0 Bft) N-NO8,0 km/h (2 Bft) N-NO (03:30)
Lindau-Insel420 m06:15-1,2-1,2 (07:25)1,8 (14:55)0,0 l/m²73%1021,70,0 km/h (0 Bft) O-NO29,0 km/h (5 Bft) NO (17:05)
Lindau-Stadt412 m06:15-2,0-2,0 (07:25)1,2 (14:55)0,0 l/m²75%1021,83,2 km/h (1 Bft) NO33,8 km/h (5 Bft) N-NO (15:40)
Maierhöfen im Allgäu733 m06:15-3,7-3,7 (06:10)-1,2 (01:35)0,0 l/m²76%1021,94,8 km/h (1 Bft) N25,7 km/h (4 Bft) O-SO (02:05)
Maselheim543 m06:15-5,0-5,0 (07:25)-2,3 (13:20)0,0 l/m²86%1023,10,0 km/h (0 Bft) N-NW24,1 km/h (4 Bft) O-NO (15:20)
Maselheim-Sulmingen548 m06:15-4,9-4,9 (07:05)-2,2 (15:15)0,0 l/m²89%1024,36,4 km/h (2 Bft) NW20,9 km/h (4 Bft) N-NO (12:15)
Mietingen-Baltringen528 m06:15-4,7-4,7 (05:40)-1,3 (00:45)0,0 l/m²86%1024,70,0 km/h (0 Bft) O-NO4,8 km/h (1 Bft) N-NO (01:20)
Mindelheim-Apfeltrach620 m06:16-5,6-5,6 (06:08)-2,7 (00:00)0,0 l/m²88%1024,00,0 km/h (0 Bft) NO0,0 km/h (0 Bft) O-NO (00:00)
Mittelbiberach577 m06:16-4,4-4,4 (06:08)-1,0 (00:16)0,0 l/m²84%1023,86,4 km/h (2 Bft) NO12,8 km/h (3 Bft) NO (05:56)
Neresheim552 m06:01-6,8-6,8 (06:01)-2,0 (00:00)0,0 l/m²89%1021,70,0 km/h (0 Bft) O4,0 km/h (1 Bft) NO (01:00)
Neukirch570 m06:15-3,1-3,1 (07:05)-0,9 (14:35)0,0 l/m²81%1022,18,0 km/h (2 Bft) N-NO37,0 km/h (5 Bft) N-NO (11:55)
Ochsenhausen, Birkenstraße613 m06:15-5,3-5,3 (07:10)-2,2 (12:50)0,0 l/m²81%1023,21,6 km/h (1 Bft) NO3,2 km/h (1 Bft) S-SW (07:05)
Ochsenhausen, Unt. Wiesen575 m06:15-5,7-5,7 (06:15)-2,4 (00:00)0,0 l/m²88%1024,40,0 km/h (0 Bft) NO4,8 km/h (1 Bft) NO (00:00)
Opfenbach-Göritz561 m06:16-4,2-5,2 (05:22)-2,8 (00:00)0,0 l/m²75%1020,10,0 km/h (0 Bft) N-NO6,5 km/h (2 Bft) O-NO (00:18)
Ostrach619 m06:15-3,7-3,8 (04:15)-0,6 (00:00)0,0 l/m²88%1021,24,8 km/h (1 Bft) NW8,0 km/h (2 Bft) N-NW (04:40)
Ravensburg, Goethestraße428 m06:15-1,7-1,7 (06:10)1,3 (00:00)0,0 l/m²79%1021,816,1 km/h (3 Bft) O-NO16,1 km/h (3 Bft) O-NO (06:15)
Ravensburg-Wernsreute511 m06:15-2,9-2,9 (05:30)0,0 (15:50)0,0 l/m²81%1024,516,1 km/h (3 Bft) N-NW35,4 km/h (5 Bft) N-NO (11:45)
Reichenbach an der Fils343 m06:15-2,0-2,0 (06:10)1,0 (00:00)0,0 l/m²77%1025,40,0 km/h (0 Bft) SO12,9 km/h (3 Bft) O-SO (05:10)
Riedlingen530 m06:15-3,2-3,2 (06:10)-1,0 (00:00)0,0 l/m²81%1023,00,0 km/h (0 Bft) O-NO0,0 km/h (0 Bft) N (00:00)
Rißtissen489 m06:15-3,1-3,1 (06:15)-0,2 (00:00)0,0 l/m²85%1020,70,0 km/h (0 Bft) O-NO8,0 km/h (2 Bft) O-NO (03:30)
Rottweil-Hausen681 m06:13-4,1-4,4 (05:57)-1,9 (00:00)0,0 l/m²83%1023,93,2 km/h (1 Bft) N-NW6,5 km/h (2 Bft) N (02:14)
Schemmerhofen520 m06:152,72,7 (00:00)2,7 (00:00)0,0 l/m²55%1021,80,0 km/h (0 Bft) NO0,0 km/h (0 Bft) NO (00:00)
Silbertal im Montafon (AT)884 m06:15-4,4-4,4 (06:14)-1,6 (00:01)0,0 l/m²85%1026,00,0 km/h (0 Bft) O-NO0,0 km/h (0 Bft) O-NO (00:00)
Tettnang466 m06:14-1,3-1,3 (06:11)1,0 (00:00)0,0 l/m²71%1021,87,9 km/h (2 Bft) N-NO16,2 km/h (3 Bft) O-SO (01:07)
Tuttlingen648 m06:06-4,1-4,3 (05:41)-2,1 (00:01)0,0 l/m²75%1023,50,0 km/h (0 Bft) SO5,2 km/h (1 Bft) W-SW (03:26)
Tuttlingen, Möhringer-Vorstadt711 m06:15-4,1-4,5 (07:10)-2,4 (16:05)0,0 l/m²82%1022,60,0 km/h (0 Bft) NO25,7 km/h (4 Bft) N-NW (12:35)
Ummendorf547 m06:15-4,4-4,5 (06:10)-0,7 (00:10)0,0 l/m²69%1023,90,0 km/h (0 Bft) O-NO16,1 km/h (3 Bft) O (01:05)
Ummendorf-Fischbach558 m06:15-5,4-5,4 (06:15)-1,9 (01:25)0,0 l/m²70%1023,70,0 km/h (0 Bft) O4,8 km/h (1 Bft) O (04:20)
Waldburg707 m06:15-3,2-3,2 (06:15)-0,8 (00:00)0,0 l/m²80%1021,512,9 km/h (3 Bft) N19,3 km/h (3 Bft) N (02:35)
Waltenhofen im Allgäu720 m06:10-7,2-7,2 (05:30)-2,2 (01:05)0,0 l/m²90%1022,60,0 km/h (0 Bft) N-NW17,7 km/h (3 Bft) N-NW (11:50)
Wangen, Südring548 m06:15-3,9-3,9 (05:54)-0,3 (00:00)0,0 l/m²83%1021,64,7 km/h (1 Bft) O-NO13,0 km/h (3 Bft) NO (01:25)
Warthausen-Birkenhard581 m06:14-4,2-4,3 (05:35)-1,2 (00:00)0,0 l/m²86%1023,413,7 km/h (3 Bft) N-NO13,7 km/h (3 Bft) NO (06:13)
Winterlingen785 m06:15-5,6-5,6 (06:15)-2,8 (01:00)0,0 l/m²84%1022,51,1 km/h (1 Bft) N3,6 km/h (1 Bft) NO (00:55)

niederschlagsdatenbank | info | login - erfassung

Sollten Sie Interesse haben, an der Niederschlagsdatenbank teilzunehmen, finden Sie > hier < weitere Informationen.
Datum: . . Kalender
Anmerkung:0,0 = nicht messbarer Niederschlag
 -  = kein Niederschlag
 k  = kumulierter Niederschlag

< 19.03.201921.03.2019 >


Niederschlagswerte vom 20.03.2019    -    derzeit 112 Stationen

Die Niederschlagswerte des gewählten Tages lassen sich durch Klicken auf das Datum sortieren.
Die Angaben sind in l/m².

Station17.03.18.03.19.03.20.03.21.03.22.03.23.03.Bemerkung 20.03.
Aichstetten Ulmenstraße 7-------
Aichstetten-Nestbaum Nestbaum-------
Albbruck Furmisstr. 182,81,3-----
Volle Sonne +15°CC Nachts klar -3°C
Allmendingen Querqueviller Ring 60,8------
Amstetten-Reutti Gassenäcker 131,81,6-----
Aulendorf Steinenbacher Weg 334,73,7-----
Aulendorf-Blönried Heuweg 326,12,9-----
Bad Bellingen Rheinstraße 76-------
Bad Buchau Hanfweiher 19,02,0-----
Bad Saulgau Walserweg1,52,5-----
Bad Saulgau-Hochberg Lampertsweiler Straße 123,53,00,0----
Bad Schussenried Konradstraße5,53,20,0----
Bad Schussenried Lortzingstrasse6,04,0-----
Bad Schussenried Klosterstraße6,02,0-----
Bad Schussenried Theodor-Storm-Strasse--39,5----
Bad Schussenried-Hopferbach Unterer Öschweg 16/16,04,2-----
Bad Schussenried-Lufthütte Hauptgasse 174,05,0---0,0-
Bad Schussenried-Sattenbeuren Ortsstraße 7-------
Bad Schussenried-Schwaigfurt Schwaigfurt 25,84,0-----
Bad Waldsee-Haisterkirch Zur Spitzenkapelle 15,52,70,0----
-4/+9°C, Nachtfrost, sonniger Tag
Bad Wurzach-Seibranz Kimpflerhof 2 7,03,0-----
Baienfurt Untere Bergstrasse 77,0------
Balzheim Hinterm Liess 194,00,5-----
Berg-Kleintobel Kleintobel10,0------
Biberach Amriswilstrasse6,31,8-----
Biberach Strölinweg6,51,5-----
Biberach Erlenweg6,0------
Biberach Neue Heimat 55,52,2-----
Biberach Mittelbergstraße 95,52,0-----
Biberach Auf dem Lindele-------
Biberach-Bergerhausen Löcherstr.14,0-2,0----
Bierstetten Schloßbühl 65,4------
Blaubeuren-Pappelau Sotzenhauserstr.7-------
Bühlertal Wolfinstraße 165,04,0-----
Dettingen a. d. Iller Schleifweg 4-------
Dornstadt-Tomerdingen Maienweg 91,30,8-----
Dürnau Dorfäckerweg 56,51,00,0----
Eberhardzell Lilienweg5,12,40,0----
Ebersbach-Roßwälden Appenwiesen1,41,40,0----
Sonne von früh bis spät.

-3,8 bis 11,8 Grad
Ehingen Rosenstraße0,30,60,00,00,0--
Nebelnässe
Ehingen Zanderstraße-------
Ehingen Schlaufenbühl1,20,0-----
Ehingen Schillerstraße1,00,0-----
Ehingen-Herbertshofen Tobelweg 9-------
Eislingen Albstraße 1255,41,3-----
Erbach-Bach Hauptstraße 24-------
Erlenmoos Haldenweg 157,42,20,1----
Füramoos Hungersberg 10,75,50,00,0---
Gutenzell Kleinser Berg 14,51,5-----
Gutenzell-Hürbel Bei der Sägmühle 14,52,0-----
Herbertingen Drosselweg3,51,00,0----
Nach eisiger Nacht Sonne pur-kalter Wind und Temperaturen knapp unter [weiterlesen...]
Herbertingen Hirschstrasse4,0------
Hochdorf-Schweinhausen Lindenweg 2-10,5-----
Hohentengen-Bremen Bremer Halde 44,01,0-----
Horgenzell-Ringgenweiler Ringgenweiler 6206,12,30,7----
Hüttisheim Ulmer Weg 21,00,5-----
Illerkirchberg Mahdauweg 200,60,50,0----
Illerrieden-Wangen Am Muckenberg 123,0------
Immenstaad Stockwiesen 10-------
Inzigkofen Butzenweg 13,31,2-----
Isny Am Dreifingerbach 3914,41,8-----
Kirchberg Rosenstr. 76,50,0-----
Kreuzthal-Steinberg-Alpe Im Kreuzbachthal 8518,64,20,0----
Schneehöhe: 30 cm
Langenau Wasserstr. 54-12,51,5-----
Langenenslingen Schattenweiler Str. 181,01,00,0--0,00,0
Leutkirch Unterer Auenweg 257,80,60,0----
Leutkirch Nachtigallenweg 288,02,0-----
Leutkirch-Adrazhofen Bergstraße 209,02,5-----
Merklingen Millergasse 9-------
Mietingen Seerosenweg 10-------
Mietingen-Walpertshofen Bussenweg 31-------
Mittelbiberach-Reute Rindenmooser Straße 29,02,0-----
Moosburg Käserweg 54,11,10,0----
Zunehmend sonnig und milder. Die Nächte weiterhin im Minusbereich.
Münsingen-Rietheim In der Lise 203,01,00,2----
Neresheim Alfred-Delp-Straße 81,30,0-----
Oberdischingen Normannenstraße 7-------
Ochsenhausen Ehrensberger Weg 59,01,3-----
Öpfingen Hauptstraße 990,10,5-----
Ostrach Uhlandweg4,01,0-----
Pfaffenhofen-Kadeltshofen Mühlbachstraße 41,01,0-----
Pfullendorf Am Schweizersbild 1,2------
Rangendingen Donaustraße 191,0------
Ravensburg Bleicherstraße-----8,3-
Ravensburg-Schmalegg St.-Magdalena-Ring 4210,01,5-----
Ravensburg-Wernsreute Wernsreute 257,41,0-----
Ravensburg-Weststadt Karl-Erb-Ring 1429,50,9-----
Regensburg Orleansstraße 3-------
Riedhausen Blütenweg 133,83,40,2----
Temp. -3,6°C / +9,9°C, Windboen O 30,6 km/h
Riedlingen Berliner Str. 412,01,0-----
Riedlingen-Neufra Panoramaweg-------
Riedlingen-Neufra Riedlinger Strasse0,81,80,00,00,00,00,0
+ 1,5 Grad, 67 % LF, trocken, klarer Himmel, Sonne
Schelklingen-Gundershofen Schwarzer-Straße 141,51,0-----
Temp. zw. -6,6°C und +21,3°C. Klar und Sonne pur. Kühler Ostwind.
Schemmerberg Drosselweg 93,01,0-----
Schwörstadt Schulstrasse 192,21,0-----
Seekirch Haldenberg 7-------
Sigmaringendorf Weingartenstraße 73,6------
Tuttlingen Möhringerstraße 112,8------
Ulm Eberhardtstraße 750,00,21,00,0---
Ummendorf Tulpenweg12,01,5-----
Ummendorf Friedrich-Schiller-Str.-------
Uttenweiler-Ahlen Seekircher Straße 82,01,0-----
Vöhringen (Schwarzwald) Drosselweg 36,0------
Waldburg Kastanienweg117,0------
Wangen-Bergerhöhe Berg 27,21,8-----
Warthausen An der Schloßhalde 4,52,30,2----
Warthausen Schwabenwiesen 4,91,4-----
Warthausen-Barabein Barabein 206,01,5-----
Weingarten Laurastraße6,00,3-----
- 2,3 um 5.00 Uhr
Weingarten Hoyerstraße-------
Weingarten Marienstraße8,00,5-----
Wolfegg-Veesers Veesers 1-------
Wolpertswende Aulendorfer Str. 175,80,90,4----

Stillgelegte Niederschlagsstationen    -    derzeit 49 Stationen

StationLetzte Meldung17.03.18.03.19.03.20.03.21.03.22.03.23.03.Bemerkung 20.03.
Allmannsweiler Eggatsweilerstr.2802.09.2014-------
Aulendorf-Rugetsweiler Erikaweg 325.07.2013-------
Aulendorf-Zollenreute Imterstraße 1209.02.2019-------
Bad Saulgau Willi-Burth-Straße19.09.2011-------
Bad Saulgau Eichendorffweg28.03.2013-------
Bad Saulgau Seewattenstraße 12815.01.2014-------
Bad Saulgau-Lampertsweiler Valentinstr. 2618.02.2015-------
Bad Schussenried-Steinhausen Drosselgasse 4/126.09.2012-------
Bad Waldsee-Michelwinnanden Michelberg 531.12.2014-------
Bad Waldsee-Osterhofen Hochwaldgasse 406.03.2015-------
Bad Waldsee-Steinach Hofraingasse 1510.11.2013-------
Bad Wurzach-Dietmanns Postweg 519.01.2019-------
Bad Wurzach-Haidgau Wengener Straße 507.10.2012-------
Bad Wurzach-Ziegelbach Ziegelbach-Greut 507.11.2014-------
Bergatreute Bolanden 113.02.2012-------
Betzenweiler Offinger Straße 505.01.2017-------
Burgrieden Am Nonnenberg 328.10.2013-------
Burgrieden-Rot Schmiedgasse 518.09.2013-------
Eberhardzell Schillerstraße05.07.2010-------
Ehingen Am Elzengraben17.06.2016-------
Gammertingen Schillerstraße 2216.01.2016-------
Griesingen Blumenstraße 906.10.2015-------
Günzburg Erlenbadweg 34 1/231.12.2010-------
Hoßkirch Kirchstraße 805.01.2018-------
Ingoldingen-Grodt Ingoldinger Weg 1919.11.2016-------
Kisslegg Kirchmoosstraße02.05.2011-------
Krauchenwies-Hausen Rosenrain 123.11.2013-------
Kressbronn Irisstraße 410.03.2010-------
Leutkirch-Ottmannshofen Spitalriedstraße 527.07.2012-------
Leutkirch-Rotis Rotis 5/208.05.2016-------
Leutkirch-Wuchzenhofen Untere Kirchstraße 18/119.09.2016-------
Mietingen Hangweg 1530.12.2017-------
Mössingen-Bästenhardt Weissdornweg 721.07.2014-------
Ostrach Heiligenberger Straße19.08.2013-------
Pfullendorf Ringstraße 18.03.2012-------
Ravensburg Olgastraße30.10.2016-------
Seltmans Amselweg 2209.04.2013-------
Stuttgart-Bad Cannstatt Beuthener Str. 6703.02.2013-------
Stuttgart-Möhringen Glashütter Weg 1023.04.2017-------
Stuttgart-Rohr Hirschsprung 307.11.2012-------
Talheim Im Schecken 2121.08.2016-------
Tannheim Eggmannstr. 42 22.10.2017-------
Tettnang-Ramsbach Jahnstr. 24/126.03.2011-------
Tuttlingen-Möhringen Belchenstraße01.01.2015-------
Ummendorf Bergstraße23.10.2017-------
Vogt Mühlwies 1822.05.2015-------
Wangen-Atzenberg Keplerweg 324.02.2019-------
Weingarten Bischof-Sproll-Straße30.06.2011-------
Wilhelmsdorf Riedhauser Straße 28.10.2012-------
Wilhelmsdorf Seefeld20.08.2013-------
Wurmlingen An der Steig 3014.10.2016-------
Die Niederschlagswerte des gewählten Tages lassen sich durch Klicken auf das Datum sortieren.
Die Angaben sind in l/m².

Wetterbeobachtungen Legende:

  • Regen
  • Nieselregen
  • Schneeregen
  • Schnee
  • Graupel
  • Eiskörner
  • Hagel
  • Bodennebel
  • Gewitter
  • Nebelnässe
  • Schneegriesel

Grafische Darstellung der Tagesniederschläge vom 20.03.2019

< 19.03.201921.03.2019 >Monats- und Jahresniederschlag


 
wetterstationen
wetterstationen
- derzeit 83 Stationen
niederschlagsdatenbank
wetterstationen
- kartographische Darstellung
niederschlagsdatenbank
niederschlagsstationen
- derzeit 112 Stationen
niederschlagsdatenbank
niederschlagsstationen
- kartographische Darstellung
 
  treffpunkt & service
--- Anzeigen --------------------------------
zugriffe:
insgesamt: 46.623.259
aktueller monat: 448
heute: 448
momentan online: 16
 
 
monatshöchstwert: 653.625
vorheriger monat: 364.213
gestern: 13.565
tageshöchstwert: 57.073
 
wetterwarte süd
 
konradstraße 3
info@wetterwarte-sued.com
roland roth
 
88427 bad schussenried